createdAt,value
2023-01-26T00:04:13.461Z,0.55
2023-01-26T00:09:15.613Z,0.95
2023-01-26T00:14:17.992Z,1.00
2023-01-26T00:19:20.091Z,1.15
2023-01-26T00:24:22.197Z,1.20
2023-01-26T00:29:24.284Z,1.08
2023-01-26T00:34:26.323Z,0.98
2023-01-26T00:39:28.367Z,1.10
2023-01-26T00:44:30.379Z,1.15
2023-01-26T00:49:33.114Z,1.02
2023-01-26T00:54:35.223Z,1.05
2023-01-26T00:59:37.430Z,1.15
2023-01-26T01:04:39.522Z,1.40
2023-01-26T01:09:41.596Z,1.40
2023-01-26T01:14:43.728Z,0.90
2023-01-26T01:19:45.735Z,0.90
2023-01-26T01:24:48.306Z,1.40
2023-01-26T01:29:51.652Z,1.58
2023-01-26T01:34:53.696Z,2.00
2023-01-26T01:39:56.756Z,2.13
2023-01-26T01:45:26.597Z,2.65
2023-01-26T01:50:38.138Z,2.50
2023-01-26T01:55:41.129Z,3.28
2023-01-26T02:00:43.847Z,2.53
2023-01-26T02:05:54.822Z,2.97
2023-01-26T02:11:00.801Z,2.67
2023-01-26T02:16:04.095Z,2.45
2023-01-26T02:21:08.821Z,2.35
2023-01-26T02:26:21.140Z,3.55
2023-01-26T02:31:26.956Z,3.55
2023-01-26T02:36:32.954Z,3.17
2023-01-26T02:41:54.087Z,3.50
2023-01-26T02:46:57.895Z,4.00
2023-01-26T02:52:00.059Z,2.92
2023-01-26T02:57:02.207Z,3.40
2023-01-26T03:02:04.513Z,2.42
2023-01-26T03:07:06.573Z,3.55
2023-01-26T03:12:10.031Z,3.50
2023-01-26T03:17:12.119Z,2.67
2023-01-26T03:22:32.630Z,3.13
2023-01-26T03:27:41.608Z,2.25
2023-01-26T03:32:44.291Z,2.63
2023-01-26T03:37:54.839Z,2.30
2023-01-26T03:43:38.081Z,2.25
2023-01-26T03:48:59.065Z,2.50
2023-01-26T03:54:20.514Z,2.20
2023-01-26T03:59:38.261Z,2.70
2023-01-26T04:05:02.374Z,2.33
2023-01-26T04:10:06.952Z,2.63
2023-01-26T04:15:28.501Z,3.10
2023-01-26T04:20:49.242Z,2.92
2023-01-26T04:25:51.352Z,2.80
2023-01-26T04:30:53.891Z,2.10
2023-01-26T04:35:57.058Z,2.80
2023-01-26T04:40:59.355Z,2.58
2023-01-26T04:46:06.286Z,2.70
2023-01-26T04:51:14.539Z,2.63
2023-01-26T04:56:27.279Z,2.80
2023-01-26T05:01:30.057Z,2.25
2023-01-26T05:06:32.782Z,3.45
2023-01-26T05:11:34.920Z,2.80
2023-01-26T05:16:57.255Z,3.10
2023-01-26T05:22:19.615Z,2.88
2023-01-26T05:27:41.639Z,2.33
2023-01-26T05:32:43.751Z,3.38
2023-01-26T05:37:47.254Z,3.05
2023-01-26T05:42:50.007Z,2.30
2023-01-26T05:48:14.609Z,2.92
2023-01-26T05:53:17.194Z,3.10
2023-01-26T05:58:20.611Z,4.32
2023-01-26T06:03:24.102Z,2.80
2023-01-26T06:08:26.318Z,2.90
2023-01-26T06:13:46.837Z,2.85
2023-01-26T06:19:02.721Z,3.05
2023-01-26T06:24:05.318Z,2.90
2023-01-26T06:29:09.033Z,3.13
2023-01-26T06:34:11.289Z,2.75
2023-01-26T06:39:17.300Z,2.90
2023-01-26T06:44:19.627Z,3.10
2023-01-26T06:49:21.772Z,3.42
2023-01-26T06:54:24.011Z,2.53
2023-01-26T06:59:37.863Z,2.13
2023-01-26T07:04:50.066Z,2.40
2023-01-26T07:09:52.155Z,2.10
2023-01-26T07:14:54.191Z,2.60
2023-01-26T07:19:56.277Z,2.15
2023-01-26T07:24:58.297Z,2.30
2023-01-26T07:30:00.362Z,2.45
2023-01-26T07:35:02.402Z,2.00
2023-01-26T07:40:05.959Z,2.33
2023-01-26T07:45:08.466Z,2.10
2023-01-26T07:50:12.257Z,3.67
2023-01-26T07:55:15.039Z,2.33
2023-01-26T08:00:18.242Z,2.05
2023-01-26T08:05:20.306Z,1.83
2023-01-26T08:10:22.449Z,2.00
2023-01-26T08:15:24.496Z,2.28
2023-01-26T08:20:26.671Z,2.22
2023-01-26T08:25:28.862Z,2.10
2023-01-26T08:30:30.981Z,3.08
2023-01-26T08:35:33.505Z,1.85
2023-01-26T08:40:35.775Z,1.48
2023-01-26T08:45:37.883Z,2.22
2023-01-26T08:50:40.004Z,1.88
2023-01-26T08:55:42.150Z,2.00
2023-01-26T09:00:44.252Z,2.35
2023-01-26T09:05:46.306Z,2.58
2023-01-26T09:10:48.374Z,2.55
2023-01-26T09:15:50.848Z,2.05
2023-01-26T09:20:53.636Z,2.28
2023-01-26T09:25:55.885Z,2.30
2023-01-26T09:30:58.079Z,2.78
2023-01-26T09:36:05.017Z,2.28
2023-01-26T09:41:13.614Z,2.67
2023-01-26T09:46:29.657Z,1.67
2023-01-26T09:56:42.068Z,2.58
2023-01-26T10:02:08.763Z,1.95
2023-01-26T10:07:12.959Z,2.00
2023-01-26T10:12:26.563Z,1.92
2023-01-26T10:17:36.615Z,2.72
2023-01-26T10:22:42.482Z,2.15
2023-01-26T10:32:52.762Z,2.50
2023-01-26T10:37:56.343Z,2.10
2023-01-26T10:42:59.929Z,1.80
2023-01-26T10:48:17.898Z,2.22
2023-01-26T10:53:26.354Z,2.38
2023-01-26T10:58:45.749Z,1.80
2023-01-26T11:03:59.568Z,2.25
2023-01-26T11:09:22.128Z,2.05
2023-01-26T11:14:24.272Z,2.35
2023-01-26T11:19:40.344Z,3.17
2023-01-26T11:24:46.437Z,2.10
2023-01-26T11:30:03.566Z,2.90
2023-01-26T11:35:20.715Z,1.80
2023-01-26T11:40:38.725Z,2.63
2023-01-26T11:45:43.737Z,1.73
2023-01-26T11:51:29.427Z,3.73
2023-01-26T11:56:41.122Z,2.50
2023-01-26T12:02:26.425Z,2.58
2023-01-26T12:07:57.167Z,2.45
2023-01-26T12:13:22.853Z,2.67
2023-01-26T12:18:48.948Z,2.05
2023-01-26T12:25:01.137Z,1.95
2023-01-26T12:30:34.375Z,1.80
2023-01-26T12:35:55.144Z,1.90
2023-01-26T12:41:08.855Z,1.60
2023-01-26T12:46:13.330Z,2.30
2023-01-26T12:51:25.856Z,1.92
2023-01-26T12:56:46.271Z,2.00
2023-01-26T13:01:48.457Z,2.10
2023-01-26T13:07:28.867Z,2.20
2023-01-26T13:12:48.818Z,1.80
2023-01-26T13:17:58.274Z,1.60
2023-01-26T13:23:00.408Z,1.95
2023-01-26T13:28:04.377Z,1.63
2023-01-26T13:33:13.963Z,1.85
2023-01-26T13:38:28.994Z,2.28
2023-01-26T13:43:52.553Z,1.80
2023-01-26T13:48:56.015Z,1.85
2023-01-26T13:54:14.620Z,1.90
2023-01-26T13:59:19.506Z,1.50
2023-01-26T14:04:30.877Z,1.67
2023-01-26T14:09:46.129Z,1.58
2023-01-26T14:14:50.226Z,1.70
2023-01-26T14:19:52.481Z,1.58
2023-01-26T14:24:55.261Z,1.98
2023-01-26T14:29:58.750Z,1.40
2023-01-26T14:35:01.298Z,1.42
2023-01-26T14:40:24.120Z,1.65
2023-01-26T14:45:31.380Z,1.88
2023-01-26T14:50:34.959Z,1.85
2023-01-26T14:55:37.207Z,1.17
2023-01-26T15:00:39.633Z,2.03
2023-01-26T15:05:45.601Z,1.17
2023-01-26T15:11:18.975Z,1.63
2023-01-26T15:16:23.757Z,1.75
2023-01-26T15:21:32.762Z,1.52
2023-01-26T15:26:36.067Z,1.67
2023-01-26T15:31:41.872Z,1.38
2023-01-26T15:36:48.031Z,1.70
2023-01-26T15:42:10.965Z,1.50
2023-01-26T15:47:13.995Z,3.08
2023-01-26T15:52:23.341Z,1.92
2023-01-26T15:57:25.631Z,1.50
2023-01-26T16:02:28.507Z,2.05
2023-01-26T16:07:30.747Z,1.58
2023-01-26T16:12:32.875Z,2.40
2023-01-26T16:17:34.920Z,2.90
2023-01-26T16:22:36.980Z,2.80
2023-01-26T16:27:39.032Z,4.10
2023-01-26T16:32:42.536Z,2.00
2023-01-26T16:37:45.048Z,3.28
2023-01-26T16:42:52.350Z,1.55
2023-01-26T16:47:56.454Z,1.83
2023-01-26T16:52:58.796Z,2.10
2023-01-26T16:58:00.856Z,1.90
2023-01-26T17:03:03.347Z,3.67
2023-01-26T17:08:07.653Z,2.15
2023-01-26T17:13:14.757Z,2.22
2023-01-26T17:18:16.850Z,2.17
2023-01-26T17:23:18.868Z,2.15
2023-01-26T17:28:20.908Z,2.53
2023-01-26T17:33:22.956Z,3.20
2023-01-26T17:38:25.007Z,1.40
2023-01-26T17:43:27.550Z,2.65
2023-01-26T17:48:29.750Z,2.53
2023-01-26T17:53:31.820Z,2.53
2023-01-26T17:58:33.980Z,2.78
2023-01-26T18:03:39.632Z,1.90
2023-01-26T18:08:42.479Z,1.77
2023-01-26T18:13:44.916Z,1.90
2023-01-26T18:18:47.501Z,2.17
2023-01-26T18:23:51.909Z,3.22
2023-01-26T18:28:54.771Z,2.50
2023-01-26T18:33:58.387Z,3.28
2023-01-26T18:39:04.019Z,2.80
2023-01-26T18:44:06.641Z,3.97
2023-01-26T18:49:10.129Z,4.05
2023-01-26T18:54:12.147Z,6.00
2023-01-26T18:59:14.127Z,3.20
2023-01-26T19:04:18.221Z,3.67
2023-01-26T19:09:21.341Z,3.42
2023-01-26T19:14:23.414Z,2.20
2023-01-26T19:19:25.617Z,1.50
2023-01-26T19:24:27.811Z,2.08
2023-01-26T19:29:29.841Z,2.90
2023-01-26T19:34:33.749Z,2.50
2023-01-26T19:39:36.491Z,2.90
2023-01-26T19:44:38.724Z,2.10
2023-01-26T19:49:40.941Z,2.30
2023-01-26T19:54:42.946Z,2.20
2023-01-26T19:59:44.967Z,2.00
2023-01-26T20:04:47.550Z,2.28
2023-01-26T20:09:50.953Z,2.45
2023-01-26T20:14:53.591Z,2.58
2023-01-26T20:19:56.131Z,2.35
2023-01-26T20:24:58.230Z,3.88
2023-01-26T20:30:00.334Z,3.75
2023-01-26T20:35:02.525Z,2.50
2023-01-26T20:40:06.554Z,3.00
2023-01-26T20:45:08.834Z,2.40
2023-01-26T20:50:12.895Z,2.75
2023-01-26T20:55:15.196Z,2.38
2023-01-26T21:00:17.660Z,2.00
2023-01-26T21:05:20.191Z,2.25
2023-01-26T21:10:22.378Z,1.70
2023-01-26T21:15:24.356Z,1.90
2023-01-26T21:20:26.334Z,2.13
2023-01-26T21:25:28.399Z,1.73
2023-01-26T21:30:30.503Z,2.03
2023-01-26T21:35:32.497Z,1.52
2023-01-26T21:40:34.521Z,1.98
2023-01-26T21:45:54.949Z,2.40
2023-01-26T21:51:17.000Z,1.50
2023-01-26T21:56:19.038Z,1.63
2023-01-26T22:01:22.018Z,1.70
2023-01-26T22:06:24.784Z,1.00
2023-01-26T22:11:28.145Z,1.60
2023-01-26T22:16:30.218Z,1.33
2023-01-26T22:21:32.825Z,1.27
2023-01-26T22:26:34.894Z,1.58
2023-01-26T22:31:37.015Z,1.90
2023-01-26T22:36:40.280Z,2.38
2023-01-26T22:41:42.548Z,2.20
2023-01-26T22:46:44.578Z,1.55
2023-01-26T22:51:46.566Z,1.48
2023-01-26T22:56:48.599Z,1.50
2023-01-26T23:01:50.676Z,1.30
2023-01-26T23:06:52.885Z,1.05
2023-01-26T23:11:54.921Z,1.30
2023-01-26T23:16:57.510Z,1.10
2023-01-26T23:21:59.555Z,1.08
2023-01-26T23:27:01.577Z,0.93
2023-01-26T23:32:04.384Z,1.17
2023-01-26T23:37:06.498Z,1.67
2023-01-26T23:42:08.543Z,1.40
2023-01-26T23:47:10.626Z,2.13
2023-01-26T23:52:12.774Z,2.05
2023-01-26T23:57:14.819Z,2.10
